createdAt,value
2022-09-06T00:00:38.841Z,66.29
2022-09-06T00:03:43.325Z,66.44
2022-09-06T00:06:47.866Z,66.58
2022-09-06T00:09:52.441Z,66.48
2022-09-06T00:12:57.109Z,66.65
2022-09-06T00:16:06.846Z,66.86
2022-09-06T00:19:11.452Z,66.87
2022-09-06T00:22:16.159Z,66.92
2022-09-06T00:25:20.782Z,66.99
2022-09-06T00:28:25.336Z,67.03
2022-09-06T00:31:29.918Z,66.99
2022-09-06T00:34:34.490Z,66.97
2022-09-06T00:37:40.913Z,67.11
2022-09-06T00:40:45.382Z,67.23
2022-09-06T00:43:49.913Z,67.13
2022-09-06T00:46:55.797Z,67.10
2022-09-06T00:50:01.343Z,67.20
2022-09-06T00:53:05.873Z,67.28
2022-09-06T00:56:10.342Z,67.20
2022-09-06T00:59:15.191Z,67.51
2022-09-06T01:02:20.269Z,67.47
2022-09-06T01:05:27.894Z,67.34
2022-09-06T01:08:41.482Z,67.27
2022-09-06T01:11:58.373Z,67.64
2022-09-06T01:15:16.953Z,67.84
2022-09-06T01:18:25.454Z,67.83
2022-09-06T01:21:39.098Z,67.81
2022-09-06T01:24:56.184Z,67.88
2022-09-06T01:28:16.303Z,67.86
2022-09-06T01:31:24.976Z,67.85
2022-09-06T01:34:32.994Z,67.84
2022-09-06T01:37:37.872Z,67.98
2022-09-06T01:40:42.230Z,68.00
2022-09-06T01:43:48.785Z,68.01
2022-09-06T01:46:57.042Z,68.07
2022-09-06T01:50:13.970Z,68.12
2022-09-06T01:53:31.321Z,68.14
2022-09-06T01:56:39.076Z,68.03
2022-09-06T01:59:57.857Z,68.20
2022-09-06T02:03:07.633Z,68.24
2022-09-06T02:06:14.500Z,68.20
2022-09-06T02:09:22.057Z,68.29
2022-09-06T02:12:27.294Z,68.21
2022-09-06T02:15:34.671Z,68.18
2022-09-06T02:18:42.071Z,68.31
2022-09-06T02:21:47.875Z,68.53
2022-09-06T02:24:54.117Z,68.38
2022-09-06T02:27:58.697Z,68.49
2022-09-06T02:31:05.192Z,68.34
2022-09-06T02:34:10.557Z,68.48
2022-09-06T02:37:16.632Z,68.59
2022-09-06T02:40:21.454Z,68.52
2022-09-06T02:43:26.031Z,68.63
2022-09-06T02:46:31.007Z,68.57
2022-09-06T02:49:35.513Z,68.75
2022-09-06T02:52:39.949Z,68.69
2022-09-06T02:55:44.522Z,68.72
2022-09-06T02:58:50.114Z,68.85
2022-09-06T03:01:54.589Z,68.75
2022-09-06T03:04:59.051Z,68.87
2022-09-06T03:08:03.785Z,68.85
2022-09-06T03:11:08.237Z,68.87
2022-09-06T03:14:12.689Z,68.88
2022-09-06T03:17:17.135Z,68.99
2022-09-06T03:20:21.693Z,68.91
2022-09-06T03:23:27.570Z,68.99
2022-09-06T03:26:32.095Z,68.89
2022-09-06T03:29:36.512Z,69.03
2022-09-06T03:32:41.101Z,69.02
2022-09-06T03:35:50.454Z,69.02
2022-09-06T03:38:55.301Z,68.95
2022-09-06T03:41:59.756Z,68.90
2022-09-06T03:45:04.177Z,68.95
2022-09-06T03:48:08.698Z,68.94
2022-09-06T03:51:13.181Z,69.08
2022-09-06T03:54:17.630Z,69.03
2022-09-06T03:57:22.137Z,69.21
2022-09-06T04:00:26.624Z,69.15
2022-09-06T04:03:31.153Z,69.28
2022-09-06T04:06:35.626Z,69.17
2022-09-06T04:09:40.157Z,69.28
2022-09-06T04:12:45.119Z,69.34
2022-09-06T04:15:49.854Z,69.24
2022-09-06T04:18:54.213Z,69.25
2022-09-06T04:21:58.657Z,69.36
2022-09-06T04:25:03.113Z,69.41
2022-09-06T04:28:07.613Z,69.27
2022-09-06T04:31:12.085Z,69.47
2022-09-06T04:34:16.903Z,69.42
2022-09-06T04:37:21.381Z,69.56
2022-09-06T04:40:25.859Z,69.66
2022-09-06T04:43:30.457Z,69.52
2022-09-06T04:46:34.945Z,69.69
2022-09-06T04:49:39.506Z,69.61
2022-09-06T04:52:44.020Z,69.85
2022-09-06T04:55:48.481Z,69.81
2022-09-06T04:58:53.655Z,69.87
2022-09-06T05:01:58.219Z,69.91
2022-09-06T05:05:02.625Z,69.95
2022-09-06T05:08:07.060Z,69.92
2022-09-06T05:11:12.424Z,70.06
2022-09-06T05:14:16.872Z,70.06
2022-09-06T05:17:21.306Z,70.20
2022-09-06T05:20:25.886Z,70.29
2022-09-06T05:23:30.400Z,70.34
2022-09-06T05:26:34.858Z,70.22
2022-09-06T05:29:39.433Z,70.44
2022-09-06T05:32:43.984Z,70.49
2022-09-06T05:35:49.762Z,70.57
2022-09-06T05:38:54.961Z,70.54
2022-09-06T05:41:59.401Z,70.57
2022-09-06T05:45:03.982Z,70.48
2022-09-06T05:48:08.854Z,70.65
2022-09-06T05:51:14.162Z,70.62
2022-09-06T05:54:18.711Z,70.61
2022-09-06T05:57:23.267Z,70.68
2022-09-06T06:00:27.789Z,70.63
2022-09-06T06:03:32.237Z,70.73
2022-09-06T06:06:36.750Z,70.72
2022-09-06T06:09:41.240Z,70.73
2022-09-06T06:12:45.681Z,70.81
2022-09-06T06:15:50.252Z,70.95
2022-09-06T06:18:55.139Z,70.92
2022-09-06T06:21:59.690Z,71.04
2022-09-06T06:25:04.530Z,70.97
2022-09-06T06:28:09.145Z,71.08
2022-09-06T06:31:13.774Z,71.09
2022-09-06T06:34:22.163Z,71.07
2022-09-06T06:37:26.674Z,70.98
2022-09-06T06:40:31.107Z,70.84
2022-09-06T06:43:38.010Z,70.94
2022-09-06T06:46:42.929Z,70.86
2022-09-06T06:49:48.744Z,70.91
2022-09-06T06:52:54.301Z,70.81
2022-09-06T06:55:58.791Z,70.59
2022-09-06T06:59:04.529Z,70.45
2022-09-06T07:02:09.175Z,70.49
2022-09-06T07:08:38.633Z,70.44
2022-09-06T07:11:43.159Z,70.35
2022-09-06T07:14:47.667Z,70.46
2022-09-06T07:17:53.200Z,70.19
2022-09-06T07:24:24.362Z,70.14
2022-09-06T07:30:56.413Z,69.55
2022-09-06T07:34:01.733Z,69.35
2022-09-06T07:37:06.242Z,68.86
2022-09-06T07:40:11.870Z,68.83
2022-09-06T07:43:16.502Z,68.69
2022-09-06T07:46:21.030Z,68.35
2022-09-06T07:49:25.530Z,68.01
2022-09-06T07:55:54.722Z,67.55
2022-09-06T07:58:59.137Z,67.26
2022-09-06T08:02:03.682Z,66.97
2022-09-06T08:11:57.946Z,66.19
2022-09-06T08:15:02.430Z,66.16
2022-09-06T08:18:07.370Z,65.80
2022-09-06T08:21:13.130Z,65.80
2022-09-06T08:24:17.683Z,65.57
2022-09-06T08:27:22.114Z,65.42
2022-09-06T08:30:27.834Z,64.76
2022-09-06T08:33:32.328Z,64.80
2022-09-06T08:36:37.121Z,64.56
2022-09-06T08:39:41.726Z,64.39
2022-09-06T08:42:46.367Z,64.04
2022-09-06T08:45:55.807Z,63.82
2022-09-06T08:49:00.475Z,63.78
2022-09-06T08:52:18.396Z,63.36
2022-09-06T08:55:27.913Z,63.29
2022-09-06T08:58:44.521Z,63.14
2022-09-06T09:01:57.084Z,62.88
2022-09-06T09:05:05.657Z,62.54
2022-09-06T09:08:16.043Z,62.22
2022-09-06T09:11:22.059Z,61.80
2022-09-06T09:14:29.083Z,61.64
2022-09-06T09:17:33.895Z,61.57
2022-09-06T09:20:38.627Z,61.20
2022-09-06T09:23:43.193Z,61.21
2022-09-06T09:26:50.843Z,60.79
2022-09-06T09:33:31.576Z,60.10
2022-09-06T09:36:36.093Z,59.89
2022-09-06T09:39:41.632Z,59.72
2022-09-06T09:42:46.291Z,59.50
2022-09-06T09:46:08.882Z,59.10
2022-09-06T09:49:14.688Z,59.33
2022-09-06T09:52:24.927Z,58.88
2022-09-06T09:55:29.609Z,58.80
2022-09-06T09:58:36.763Z,58.23
2022-09-06T10:01:41.285Z,58.14
2022-09-06T10:04:48.368Z,58.05
2022-09-06T10:07:53.995Z,57.81
2022-09-06T10:10:58.966Z,57.54
2022-09-06T10:14:12.617Z,57.38
2022-09-06T10:17:30.662Z,57.28
2022-09-06T10:20:36.876Z,56.82
2022-09-06T10:27:16.092Z,56.83
2022-09-06T10:30:22.361Z,56.47
2022-09-06T10:33:31.084Z,56.36
2022-09-06T10:36:36.837Z,55.88
2022-09-06T10:39:49.401Z,55.80
2022-09-06T10:42:54.377Z,55.61
2022-09-06T10:46:03.592Z,55.28
2022-09-06T10:49:11.705Z,54.75
2022-09-06T10:52:18.690Z,54.73
2022-09-06T10:55:24.239Z,54.74
2022-09-06T11:01:59.544Z,54.18
2022-09-06T11:08:53.586Z,53.95
2022-09-06T11:12:04.945Z,53.75
2022-09-06T11:15:12.085Z,53.67
2022-09-06T11:18:19.621Z,53.09
2022-09-06T11:21:32.305Z,53.25
2022-09-06T11:24:46.209Z,53.19
2022-09-06T11:27:57.335Z,52.76
2022-09-06T11:31:03.801Z,52.60
2022-09-06T11:34:10.469Z,52.49
2022-09-06T11:37:25.854Z,52.34
2022-09-06T11:40:31.022Z,52.22
2022-09-06T11:43:46.168Z,52.12
2022-09-06T11:47:07.844Z,51.88
2022-09-06T11:50:26.074Z,51.88
2022-09-06T11:53:31.138Z,51.77
2022-09-06T11:56:40.815Z,51.49
2022-09-06T11:59:53.466Z,51.42
2022-09-06T12:06:23.380Z,50.87
2022-09-06T12:09:31.675Z,50.88
2022-09-06T12:12:43.156Z,50.80
2022-09-06T12:15:53.398Z,50.66
2022-09-06T12:19:02.028Z,50.69
2022-09-06T12:22:26.657Z,50.41
2022-09-06T12:25:48.451Z,50.14
2022-09-06T12:28:53.830Z,49.81
2022-09-06T12:31:58.623Z,49.57
2022-09-06T12:38:28.771Z,49.33
2022-09-06T12:41:34.159Z,49.00
2022-09-06T12:44:39.220Z,48.86
2022-09-06T12:47:43.725Z,48.76
2022-09-06T12:51:01.661Z,48.73
2022-09-06T12:54:07.213Z,48.74
2022-09-06T12:57:15.978Z,48.57
2022-09-06T13:00:20.710Z,48.79
2022-09-06T13:03:27.245Z,48.44
2022-09-06T13:06:34.333Z,48.23
2022-09-06T13:09:39.756Z,48.31
2022-09-06T13:12:46.261Z,48.07
2022-09-06T13:15:50.779Z,47.93
2022-09-06T13:18:55.793Z,47.88
2022-09-06T13:22:00.866Z,47.74
2022-09-06T13:25:05.822Z,47.61
2022-09-06T13:28:10.267Z,47.63
2022-09-06T13:31:21.275Z,47.22
2022-09-06T13:34:26.674Z,47.14
2022-09-06T13:37:33.856Z,47.31
2022-09-06T13:41:09.650Z,47.13
2022-09-06T13:44:17.275Z,47.12
2022-09-06T13:47:21.919Z,47.09
2022-09-06T13:50:28.008Z,46.91
2022-09-06T13:53:33.000Z,46.71
2022-09-06T13:56:37.675Z,46.74
2022-09-06T13:59:43.069Z,46.44
2022-09-06T14:02:49.093Z,46.78
2022-09-06T14:05:53.594Z,46.49
2022-09-06T14:09:13.763Z,46.55
2022-09-06T14:12:18.478Z,46.36
2022-09-06T14:15:23.453Z,46.42
2022-09-06T14:18:28.474Z,46.25
2022-09-06T14:21:33.066Z,46.29
2022-09-06T14:24:37.569Z,46.36
2022-09-06T14:27:42.083Z,46.29
2022-09-06T14:30:46.693Z,46.33
2022-09-06T14:33:51.194Z,46.24
2022-09-06T14:36:55.650Z,46.30
2022-09-06T14:40:00.179Z,46.42
2022-09-06T14:43:05.061Z,46.42
2022-09-06T14:46:10.295Z,46.38
2022-09-06T14:49:14.970Z,46.29
2022-09-06T14:52:20.037Z,46.27
2022-09-06T14:55:24.887Z,46.10
2022-09-06T14:58:29.387Z,46.41
2022-09-06T15:01:38.665Z,46.40
2022-09-06T15:04:43.299Z,46.29
2022-09-06T15:07:48.094Z,46.26
2022-09-06T15:10:55.319Z,46.38
2022-09-06T15:14:00.251Z,46.35
2022-09-06T15:17:08.946Z,46.53
2022-09-06T15:20:13.939Z,46.46
2022-09-06T15:23:26.040Z,46.42
2022-09-06T15:26:30.901Z,46.54
2022-09-06T15:29:35.491Z,46.44
2022-09-06T15:32:39.962Z,46.52
2022-09-06T15:35:44.642Z,46.53
2022-09-06T15:38:50.115Z,46.57
2022-09-06T15:41:54.626Z,46.43
2022-09-06T15:44:59.066Z,46.51
2022-09-06T15:48:03.513Z,46.30
2022-09-06T15:51:08.195Z,46.42
2022-09-06T15:54:13.013Z,46.23
2022-09-06T15:57:18.127Z,46.24
2022-09-06T16:00:23.818Z,46.22
2022-09-06T16:03:28.659Z,46.26
2022-09-06T16:06:33.930Z,46.22
2022-09-06T16:09:38.471Z,46.22
2022-09-06T16:12:44.671Z,46.44
2022-09-06T16:15:58.070Z,46.24
2022-09-06T16:19:02.593Z,46.35
2022-09-06T16:22:07.025Z,46.33
2022-09-06T16:25:11.522Z,46.49
2022-09-06T16:28:16.106Z,46.57
2022-09-06T16:31:21.082Z,46.49
2022-09-06T16:34:26.279Z,46.49
2022-09-06T16:37:30.728Z,46.65
2022-09-06T16:40:35.298Z,46.79
2022-09-06T16:43:39.816Z,46.83
2022-09-06T16:46:44.603Z,46.91
2022-09-06T16:49:49.110Z,47.02
2022-09-06T16:52:53.730Z,47.27
2022-09-06T16:55:58.202Z,47.24
2022-09-06T16:59:04.233Z,47.09
2022-09-06T17:02:08.848Z,47.08
2022-09-06T17:05:14.552Z,47.41
2022-09-06T17:08:19.141Z,47.51
2022-09-06T17:11:23.998Z,47.56
2022-09-06T17:14:28.513Z,47.52
2022-09-06T17:17:33.314Z,47.69
2022-09-06T17:20:39.139Z,47.76
2022-09-06T17:23:43.701Z,47.87
2022-09-06T17:26:48.191Z,48.18
2022-09-06T17:29:52.777Z,48.47
2022-09-06T17:32:57.294Z,48.61
2022-09-06T17:36:08.652Z,48.64
2022-09-06T17:39:14.896Z,48.79
2022-09-06T17:42:20.006Z,48.86
2022-09-06T17:45:24.527Z,49.11
2022-09-06T17:48:30.264Z,49.47
2022-09-06T17:51:35.481Z,49.62
2022-09-06T17:54:39.961Z,49.73
2022-09-06T17:57:44.326Z,49.85
2022-09-06T18:00:48.825Z,50.21
2022-09-06T18:03:53.542Z,50.33
2022-09-06T18:06:58.067Z,50.54
2022-09-06T18:10:02.633Z,50.97
2022-09-06T18:13:07.323Z,51.12
2022-09-06T18:16:12.293Z,51.03
2022-09-06T18:19:17.738Z,51.16
2022-09-06T18:22:22.218Z,51.46
2022-09-06T18:25:28.683Z,51.68
2022-09-06T18:28:33.913Z,51.91
2022-09-06T18:31:38.709Z,52.18
2022-09-06T18:34:43.216Z,52.37
2022-09-06T18:37:47.720Z,52.49
2022-09-06T18:40:55.914Z,52.68
2022-09-06T18:44:02.808Z,53.05
2022-09-06T18:47:08.313Z,53.11
2022-09-06T18:50:12.934Z,53.00
2022-09-06T18:53:18.369Z,53.15
2022-09-06T18:56:22.896Z,53.46
2022-09-06T18:59:27.519Z,53.76
2022-09-06T19:02:32.483Z,53.85
2022-09-06T19:05:37.548Z,54.16
2022-09-06T19:08:42.462Z,54.15
2022-09-06T19:11:51.465Z,54.46
2022-09-06T19:14:55.986Z,54.61
2022-09-06T19:18:00.514Z,54.80
2022-09-06T19:21:06.514Z,54.93
2022-09-06T19:24:11.661Z,55.12
2022-09-06T19:27:16.477Z,55.21
2022-09-06T19:30:20.905Z,55.52
2022-09-06T19:33:25.784Z,55.50
2022-09-06T19:36:32.061Z,55.65
2022-09-06T19:39:37.445Z,55.87
2022-09-06T19:42:42.043Z,55.98
2022-09-06T19:45:46.695Z,56.18
2022-09-06T19:48:51.969Z,56.32
2022-09-06T19:51:56.475Z,56.38
2022-09-06T19:55:00.917Z,56.58
2022-09-06T19:58:08.899Z,56.70
2022-09-06T20:01:18.001Z,56.89
2022-09-06T20:04:22.575Z,56.97
2022-09-06T20:07:28.485Z,57.16
2022-09-06T20:10:32.986Z,57.13
2022-09-06T20:13:37.955Z,57.38
2022-09-06T20:16:43.158Z,57.54
2022-09-06T20:19:48.382Z,57.70
2022-09-06T20:22:52.899Z,57.70
2022-09-06T20:26:01.112Z,57.77
2022-09-06T20:29:06.801Z,57.94
2022-09-06T20:32:11.242Z,58.09
2022-09-06T20:35:15.794Z,58.10
2022-09-06T20:38:20.334Z,58.23
2022-09-06T20:41:25.582Z,58.38
2022-09-06T20:44:30.033Z,58.46
2022-09-06T20:47:34.478Z,58.46
2022-09-06T20:50:38.929Z,58.67
2022-09-06T20:53:43.404Z,58.83
2022-09-06T20:56:47.987Z,58.94
2022-09-06T20:59:52.379Z,59.06
2022-09-06T21:02:57.105Z,59.14
2022-09-06T21:06:03.221Z,59.29
2022-09-06T21:09:08.546Z,59.39
2022-09-06T21:12:13.012Z,59.39
2022-09-06T21:15:17.649Z,59.52
2022-09-06T21:18:23.021Z,59.73
2022-09-06T21:21:28.106Z,59.69
2022-09-06T21:24:33.326Z,59.84
2022-09-06T21:27:38.037Z,59.88
2022-09-06T21:30:42.570Z,60.04
2022-09-06T21:33:47.758Z,59.95
